createdAt,value
2017-10-28T00:01:43.450Z,102065.56
2017-10-28T00:04:18.182Z,102055.77
2017-10-28T00:06:53.214Z,102059.81
2017-10-28T00:09:28.036Z,102052.84
2017-10-28T00:12:02.759Z,102050.33
2017-10-28T00:14:37.423Z,102038.55
2017-10-28T00:17:12.163Z,102038.34
2017-10-28T00:19:46.882Z,102027.38
2017-10-28T00:22:21.591Z,102027.95
2017-10-28T00:24:56.339Z,102031.25
2017-10-28T00:27:31.051Z,102040.75
2017-10-28T00:30:10.454Z,102040.11
2017-10-28T00:32:50.583Z,102022.67
2017-10-28T00:35:30.459Z,102015.08
2017-10-28T00:38:05.362Z,101996.99
2017-10-28T00:40:39.939Z,102010.39
2017-10-28T00:43:14.971Z,102002.37
2017-10-28T00:45:49.788Z,101991.02
2017-10-28T00:48:24.804Z,101989.12
2017-10-28T00:51:01.163Z,101981.45
2017-10-28T00:53:35.781Z,101973.36
2017-10-28T00:56:11.480Z,101971.36
2017-10-28T00:58:46.216Z,101970.02
2017-10-28T01:01:20.986Z,101963.84
2017-10-28T01:03:55.723Z,101953.42
2017-10-28T01:06:30.335Z,101955.16
2017-10-28T01:09:04.386Z,101953.17
2017-10-28T01:11:39.351Z,101952.28
2017-10-28T01:14:14.035Z,101950.98
2017-10-28T01:16:48.714Z,101948.39
2017-10-28T01:19:22.994Z,101937.63
2017-10-28T01:21:58.102Z,101928.55
2017-10-28T01:24:32.378Z,101924.50
2017-10-28T01:27:06.987Z,101912.62
2017-10-28T01:29:41.974Z,101888.28
2017-10-28T01:32:16.503Z,101899.95
2017-10-28T01:34:51.391Z,101884.89
2017-10-28T01:37:26.018Z,101870.86
2017-10-28T01:40:00.821Z,101847.36
2017-10-28T01:42:35.548Z,101865.23
2017-10-28T01:45:11.486Z,101854.63
2017-10-28T01:47:46.758Z,101874.04
2017-10-28T01:50:22.386Z,101880.66
2017-10-28T01:52:57.086Z,101872.58
2017-10-28T01:55:31.895Z,101874.37
2017-10-28T01:58:06.522Z,101876.62
2017-10-28T02:00:41.378Z,101872.36
2017-10-28T02:03:16.131Z,101871.06
2017-10-28T02:05:50.966Z,101873.66
2017-10-28T02:08:25.640Z,101865.08
2017-10-28T02:11:00.330Z,101857.72
2017-10-28T02:13:34.895Z,101846.11
2017-10-28T02:16:09.560Z,101835.95
2017-10-28T02:18:45.370Z,101826.63
2017-10-28T02:21:20.135Z,101806.03
2017-10-28T02:23:54.612Z,101797.62
2017-10-28T02:26:29.502Z,101800.31
2017-10-28T02:29:04.138Z,101788.65
2017-10-28T02:31:38.817Z,101801.55
2017-10-28T02:34:14.098Z,101808.19
2017-10-28T02:36:48.888Z,101795.55
2017-10-28T02:39:24.529Z,101791.56
2017-10-28T02:41:59.075Z,101776.19
2017-10-28T02:44:33.748Z,101732.44
2017-10-28T02:47:08.167Z,101729.00
2017-10-28T02:49:43.344Z,101724.79
2017-10-28T02:52:18.910Z,101719.17
2017-10-28T02:54:53.638Z,101728.22
2017-10-28T02:57:29.519Z,101738.48
2017-10-28T03:00:04.574Z,101721.89
2017-10-28T03:02:40.695Z,101710.14
2017-10-28T03:05:15.311Z,101715.09
2017-10-28T03:07:50.014Z,101723.95
2017-10-28T03:10:24.390Z,101707.14
2017-10-28T03:12:59.294Z,101713.80
2017-10-28T03:15:33.919Z,101716.56
2017-10-28T03:18:08.219Z,101713.34
2017-10-28T03:20:43.079Z,101721.67
2017-10-28T03:23:17.783Z,101721.72
2017-10-28T03:25:53.095Z,101718.02
2017-10-28T03:28:28.064Z,101706.23
2017-10-28T03:31:03.636Z,101710.83
2017-10-28T03:33:38.535Z,101685.75
2017-10-28T03:36:13.286Z,101692.92
2017-10-28T03:38:47.721Z,101672.28
2017-10-28T03:41:22.531Z,101675.86
2017-10-28T03:43:57.184Z,101668.74
2017-10-28T03:46:31.712Z,101670.48
2017-10-28T03:49:06.425Z,101655.17
2017-10-28T03:51:41.120Z,101648.26
2017-10-28T03:54:15.871Z,101658.25
2017-10-28T03:56:50.601Z,101649.05
2017-10-28T03:59:25.239Z,101641.31
2017-10-28T04:01:59.975Z,101625.38
2017-10-28T04:04:36.623Z,101642.03
2017-10-28T04:07:11.336Z,101658.69
2017-10-28T04:09:47.085Z,101639.45
2017-10-28T04:12:21.724Z,101628.57
2017-10-28T04:14:57.367Z,101609.04
2017-10-28T04:17:32.124Z,101600.95
2017-10-28T04:20:06.819Z,101584.23
2017-10-28T04:22:41.474Z,101572.21
2017-10-28T04:25:16.166Z,101571.18
2017-10-28T04:27:51.010Z,101579.94
2017-10-28T04:30:25.742Z,101582.00
2017-10-28T04:33:00.471Z,101583.55
2017-10-28T04:35:35.134Z,101569.59
2017-10-28T04:38:09.511Z,101563.69
2017-10-28T04:40:44.521Z,101564.20
2017-10-28T04:43:19.083Z,101548.77
2017-10-28T04:45:54.822Z,101525.26
2017-10-28T04:48:29.463Z,101531.00
2017-10-28T04:51:05.216Z,101508.00
2017-10-28T04:53:39.828Z,101512.31
2017-10-28T04:56:14.547Z,101500.00
2017-10-28T04:58:49.122Z,101500.83
2017-10-28T05:01:23.850Z,101477.55
2017-10-28T05:03:58.660Z,101478.90
2017-10-28T05:06:33.031Z,101467.84
2017-10-28T05:09:07.814Z,101450.06
2017-10-28T05:11:42.356Z,101427.47
2017-10-28T05:14:16.602Z,101437.40
2017-10-28T05:16:51.499Z,101430.91
2017-10-28T05:19:26.611Z,101439.20
2017-10-28T05:22:01.328Z,101449.95
2017-10-28T05:24:35.872Z,101453.12
2017-10-28T05:27:11.439Z,101439.70
2017-10-28T05:29:45.906Z,101423.77
2017-10-28T05:32:20.611Z,101419.64
2017-10-28T05:34:55.323Z,101444.67
2017-10-28T05:37:30.124Z,101420.49
2017-10-28T05:40:04.954Z,101401.81
2017-10-28T05:42:39.326Z,101400.34
2017-10-28T05:45:14.090Z,101399.22
2017-10-28T05:47:49.335Z,101400.04
2017-10-28T05:50:24.001Z,101399.52
2017-10-28T05:52:59.039Z,101410.95
2017-10-28T05:55:33.727Z,101395.34
2017-10-28T05:58:08.431Z,101400.89
2017-10-28T06:00:43.758Z,101389.00
2017-10-28T06:03:18.508Z,101390.67
2017-10-28T06:05:53.490Z,101392.61
2017-10-28T06:08:28.317Z,101387.28
2017-10-28T06:11:02.927Z,101382.08
2017-10-28T06:13:37.675Z,101400.89
2017-10-28T06:16:12.394Z,101416.64
2017-10-28T06:18:47.323Z,101399.87
2017-10-28T06:21:22.061Z,101398.50
2017-10-28T06:23:56.411Z,101400.25
2017-10-28T06:26:31.384Z,101381.20
2017-10-28T06:29:07.152Z,101375.61
2017-10-28T06:31:41.880Z,101386.30
2017-10-28T06:34:16.530Z,101379.40
2017-10-28T06:36:51.127Z,101369.34
2017-10-28T06:39:25.966Z,101366.13
2017-10-28T06:42:00.719Z,101356.14
2017-10-28T06:44:37.395Z,101348.28
2017-10-28T06:47:13.031Z,101345.09
2017-10-28T06:49:47.770Z,101352.59
2017-10-28T06:52:22.610Z,101340.94
2017-10-28T06:54:57.434Z,101355.56
2017-10-28T06:57:32.167Z,101351.77
2017-10-28T07:00:06.882Z,101353.67
2017-10-28T07:02:41.710Z,101343.11
2017-10-28T07:05:17.482Z,101337.91
2017-10-28T07:07:52.778Z,101348.75
2017-10-28T07:10:27.734Z,101353.19
2017-10-28T07:13:02.497Z,101341.13
2017-10-28T07:15:37.303Z,101342.10
2017-10-28T07:18:13.152Z,101349.87
2017-10-28T07:20:47.959Z,101350.68
2017-10-28T07:23:22.692Z,101360.11
2017-10-28T07:25:58.287Z,101363.38
2017-10-28T07:28:32.999Z,101359.88
2017-10-28T07:31:07.744Z,101340.32
2017-10-28T07:33:42.455Z,101331.53
2017-10-28T07:36:17.246Z,101330.36
2017-10-28T07:38:52.008Z,101320.72
2017-10-28T07:41:26.747Z,101321.25
2017-10-28T07:44:00.847Z,101306.05
2017-10-28T07:46:36.644Z,101314.19
2017-10-28T07:49:11.329Z,101330.74
2017-10-28T07:51:46.224Z,101334.40
2017-10-28T07:54:20.882Z,101340.70
2017-10-28T07:56:55.845Z,101322.08
2017-10-28T07:59:30.655Z,101336.08
2017-10-28T08:02:04.936Z,101330.52
2017-10-28T08:04:39.899Z,101334.30
2017-10-28T08:07:14.934Z,101338.67
2017-10-28T08:09:49.577Z,101341.63
2017-10-28T08:12:25.263Z,101330.17
2017-10-28T08:14:59.938Z,101335.76
2017-10-28T08:17:34.983Z,101328.63
2017-10-28T08:20:09.721Z,101323.74
2017-10-28T08:22:44.447Z,101324.70
2017-10-28T08:25:19.159Z,101315.36
2017-10-28T08:27:54.030Z,101307.92
2017-10-28T08:30:29.648Z,101306.55
2017-10-28T08:33:04.322Z,101295.08
2017-10-28T08:35:38.903Z,101300.99
2017-10-28T08:38:13.650Z,101293.98
2017-10-28T08:40:48.357Z,101277.95
2017-10-28T08:43:23.180Z,101270.53
2017-10-28T08:45:57.598Z,101271.36
2017-10-28T08:48:32.990Z,101264.66
2017-10-28T08:51:07.031Z,101247.14
2017-10-28T08:53:41.499Z,101259.47
2017-10-28T08:56:16.622Z,101244.52
2017-10-28T08:58:51.351Z,101237.41
2017-10-28T09:01:25.867Z,101235.33
2017-10-28T09:04:00.667Z,101239.42
2017-10-28T09:06:35.247Z,101246.28
2017-10-28T09:09:10.060Z,101256.50
2017-10-28T09:11:44.355Z,101251.75
2017-10-28T09:14:19.351Z,101247.97
2017-10-28T09:16:54.319Z,101251.81
2017-10-28T09:19:28.803Z,101263.36
2017-10-28T09:22:03.445Z,101254.88
2017-10-28T09:24:38.166Z,101254.77
2017-10-28T09:27:12.930Z,101254.23
2017-10-28T09:29:47.924Z,101248.40
2017-10-28T09:32:22.739Z,101246.27
2017-10-28T09:34:57.334Z,101247.89
2017-10-28T09:37:32.106Z,101237.55
2017-10-28T09:40:06.828Z,101232.10
2017-10-28T09:42:41.567Z,101223.70
2017-10-28T09:45:16.374Z,101222.73
2017-10-28T09:47:50.907Z,101224.74
2017-10-28T09:50:25.415Z,101227.55
2017-10-28T09:53:00.112Z,101223.17
2017-10-28T09:55:34.693Z,101220.55
2017-10-28T09:58:09.487Z,101223.70
2017-10-28T10:00:44.224Z,101223.62
2017-10-28T10:03:19.091Z,101206.94
2017-10-28T10:05:54.127Z,101214.83
2017-10-28T10:08:29.866Z,101204.37
2017-10-28T10:11:04.791Z,101203.45
2017-10-28T10:13:39.339Z,101197.09
2017-10-28T10:16:14.071Z,101191.61
2017-10-28T10:18:48.841Z,101183.72
2017-10-28T10:21:24.712Z,101159.48
2017-10-28T10:23:59.863Z,101158.27
2017-10-28T10:26:34.780Z,101167.05
2017-10-28T10:29:10.379Z,101158.96
2017-10-28T10:31:45.080Z,101159.02
2017-10-28T10:34:19.559Z,101158.45
2017-10-28T10:36:55.443Z,101157.30
2017-10-28T10:39:31.035Z,101154.45
2017-10-28T10:42:05.655Z,101153.80
2017-10-28T10:44:40.490Z,101147.30
2017-10-28T10:47:14.954Z,101140.39
2017-10-28T10:49:49.740Z,101135.37
2017-10-28T10:52:25.362Z,101142.44
2017-10-28T10:55:00.311Z,101131.86
2017-10-28T10:57:35.142Z,101115.24
2017-10-28T11:00:10.142Z,101113.20
2017-10-28T11:02:44.238Z,101101.16
2017-10-28T11:05:19.219Z,101093.88
2017-10-28T11:07:53.763Z,101093.84
2017-10-28T11:10:28.510Z,101085.25
2017-10-28T11:13:03.766Z,101076.00
2017-10-28T11:15:38.516Z,101070.56
2017-10-28T11:18:13.251Z,101065.91
2017-10-28T11:20:48.201Z,101056.25
2017-10-28T11:23:22.946Z,101056.31
2017-10-28T11:25:57.803Z,101061.28
2017-10-28T11:28:32.487Z,101057.51
2017-10-28T11:31:07.011Z,101067.95
2017-10-28T11:33:41.491Z,101062.95
2017-10-28T11:36:16.438Z,101059.30
2017-10-28T11:38:51.303Z,101056.11
2017-10-28T11:41:26.682Z,101070.95
2017-10-28T11:44:01.660Z,101066.86
2017-10-28T11:46:36.398Z,101050.45
2017-10-28T11:49:11.138Z,101043.41
2017-10-28T11:51:46.050Z,101035.81
2017-10-28T11:54:20.605Z,101034.93
2017-10-28T11:56:55.320Z,101032.98
2017-10-28T11:59:30.010Z,101016.43
2017-10-28T12:02:04.807Z,101013.81
2017-10-28T12:04:39.434Z,101009.63
2017-10-28T12:07:14.918Z,101004.00
2017-10-28T12:09:49.683Z,100994.60
2017-10-28T12:12:24.405Z,100983.77
2017-10-28T12:14:59.151Z,100987.00
2017-10-28T12:17:33.979Z,100979.50
2017-10-28T12:20:08.531Z,100976.73
2017-10-28T12:22:44.250Z,100967.12
2017-10-28T12:25:18.872Z,100957.86
2017-10-28T12:27:53.514Z,100957.99
2017-10-28T12:30:28.310Z,100968.80
2017-10-28T12:33:02.982Z,100965.96
2017-10-28T12:35:37.671Z,100958.67
2017-10-28T12:38:12.311Z,100940.45
2017-10-28T12:40:46.928Z,100942.16
2017-10-28T12:43:21.882Z,100931.84
2017-10-28T12:45:56.670Z,100915.34
2017-10-28T12:48:32.235Z,100915.51
2017-10-28T12:51:06.970Z,100912.27
2017-10-28T12:53:41.644Z,100906.64
2017-10-28T12:56:16.258Z,100918.85
2017-10-28T12:58:51.098Z,100897.13
2017-10-28T13:01:25.727Z,100900.42
2017-10-28T13:04:01.491Z,100902.31
2017-10-28T13:06:35.914Z,100894.15
2017-10-28T13:09:10.838Z,100878.39
2017-10-28T13:11:45.519Z,100878.16
2017-10-28T13:14:20.362Z,100882.38
2017-10-28T13:16:55.935Z,100868.33
2017-10-28T13:19:30.623Z,100834.95
2017-10-28T13:22:05.434Z,100873.66
2017-10-28T13:24:40.311Z,100865.72
2017-10-28T13:27:15.343Z,100870.01
2017-10-28T13:29:50.088Z,100852.92
2017-10-28T13:32:24.822Z,100847.42
2017-10-28T13:34:59.523Z,100853.63
2017-10-28T13:37:34.082Z,100833.31
2017-10-28T13:40:08.611Z,100834.66
2017-10-28T13:42:43.359Z,100840.06
2017-10-28T13:45:18.014Z,100831.59
2017-10-28T13:47:52.691Z,100824.00
2017-10-28T13:50:27.391Z,100821.74
2017-10-28T13:53:02.024Z,100820.70
2017-10-28T13:55:36.751Z,100834.80
2017-10-28T13:58:11.576Z,100817.92
2017-10-28T14:00:46.216Z,100826.72
2017-10-28T14:03:20.923Z,100822.53
2017-10-28T14:05:55.540Z,100822.37
2017-10-28T14:08:30.471Z,100815.45
2017-10-28T14:11:05.174Z,100820.31
2017-10-28T14:13:40.071Z,100811.47
2017-10-28T14:16:14.759Z,100804.18
2017-10-28T14:18:49.511Z,100813.63
2017-10-28T14:21:24.067Z,100808.03
2017-10-28T14:23:58.835Z,100794.05
2017-10-28T14:26:33.707Z,100806.00
2017-10-28T14:29:08.505Z,100795.34
2017-10-28T14:31:43.428Z,100806.52
2017-10-28T14:34:18.122Z,100785.66
2017-10-28T14:36:52.899Z,100795.52
2017-10-28T14:39:27.439Z,100784.71
2017-10-28T14:42:02.887Z,100771.88
2017-10-28T14:44:37.527Z,100769.55
2017-10-28T14:47:12.255Z,100771.12
2017-10-28T14:49:48.174Z,100777.20
2017-10-28T14:52:22.795Z,100776.96
2017-10-28T14:54:57.435Z,100786.52
2017-10-28T14:57:32.127Z,100766.59
2017-10-28T15:00:06.891Z,100768.56
2017-10-28T15:02:41.655Z,100763.03
2017-10-28T15:05:16.188Z,100743.75
2017-10-28T15:07:51.067Z,100741.22
2017-10-28T15:10:25.839Z,100725.17
2017-10-28T15:13:00.376Z,100735.48
2017-10-28T15:15:34.935Z,100701.19
2017-10-28T15:18:09.670Z,100721.53
2017-10-28T15:20:44.387Z,100716.97
2017-10-28T15:23:19.143Z,100706.79
2017-10-28T15:25:53.800Z,100708.03
2017-10-28T15:28:28.567Z,100692.59
2017-10-28T15:31:03.370Z,100688.53
2017-10-28T15:33:38.205Z,100682.23
2017-10-28T15:36:12.775Z,100674.59
2017-10-28T15:38:47.687Z,100669.26
2017-10-28T15:41:22.344Z,100663.78
2017-10-28T15:43:57.135Z,100660.02
2017-10-28T15:46:31.847Z,100658.01
2017-10-28T15:49:06.570Z,100651.95
2017-10-28T15:51:41.271Z,100652.31
2017-10-28T15:54:15.899Z,100654.89
2017-10-28T15:56:50.712Z,100647.44
2017-10-28T15:59:25.407Z,100653.02
2017-10-28T16:02:00.057Z,100642.54
2017-10-28T16:04:35.002Z,100645.66
2017-10-28T16:07:09.719Z,100642.20
2017-10-28T16:09:44.505Z,100628.20
2017-10-28T16:12:19.299Z,100628.60
2017-10-28T16:14:53.882Z,100628.45
2017-10-28T16:17:28.633Z,100626.64
2017-10-28T16:20:03.419Z,100615.96
2017-10-28T16:22:38.215Z,100622.45
2017-10-28T16:25:12.984Z,100615.81
2017-10-28T16:27:47.695Z,100606.32
2017-10-28T16:30:22.430Z,100591.19
2017-10-28T16:32:57.440Z,100588.57
2017-10-28T16:35:31.839Z,100585.72
2017-10-28T16:38:06.758Z,100566.31
2017-10-28T16:40:41.634Z,100570.08
2017-10-28T16:43:16.323Z,100577.19
2017-10-28T16:45:51.030Z,100572.23
2017-10-28T16:48:25.496Z,100569.41
2017-10-28T16:51:01.475Z,100562.26
2017-10-28T16:53:36.090Z,100558.08
2017-10-28T16:56:11.032Z,100558.63
2017-10-28T16:58:45.828Z,100559.13
2017-10-28T17:01:20.618Z,100552.23
2017-10-28T17:03:55.302Z,100521.94
2017-10-28T17:06:30.049Z,100522.88
2017-10-28T17:09:04.584Z,100519.38
2017-10-28T17:11:40.391Z,100520.78
2017-10-28T17:14:15.079Z,100517.52
2017-10-28T17:16:49.932Z,100508.27
2017-10-28T17:19:24.678Z,100506.92
2017-10-28T17:21:59.426Z,100499.67
2017-10-28T17:24:35.284Z,100490.37
2017-10-28T17:27:10.239Z,100489.47
2017-10-28T17:29:45.059Z,100494.66
2017-10-28T17:32:19.998Z,100487.67
2017-10-28T17:34:55.158Z,100483.60
2017-10-28T17:37:29.573Z,100456.89
2017-10-28T17:40:04.127Z,100465.18
2017-10-28T17:42:38.964Z,100454.77
2017-10-28T17:45:14.516Z,100466.67
2017-10-28T17:47:49.638Z,100449.59
2017-10-28T17:50:23.794Z,100445.18
2017-10-28T17:52:58.797Z,100444.49
2017-10-28T17:55:33.722Z,100442.05
2017-10-28T17:58:10.327Z,100429.56
2017-10-28T18:00:45.051Z,100433.64
2017-10-28T18:03:19.996Z,100415.06
2017-10-28T18:05:54.643Z,100414.00
2017-10-28T18:08:29.279Z,100412.52
2017-10-28T18:11:03.805Z,100403.18
2017-10-28T18:13:38.461Z,100397.23
2017-10-28T18:16:13.170Z,100375.22
2017-10-28T18:18:47.995Z,100361.86
2017-10-28T18:21:22.715Z,100389.42
2017-10-28T18:23:58.119Z,100394.78
2017-10-28T18:26:32.983Z,100367.87
2017-10-28T18:29:07.604Z,100357.07
2017-10-28T18:31:42.215Z,100347.19
2017-10-28T18:34:17.007Z,100352.73
2017-10-28T18:36:51.710Z,100349.48
2017-10-28T18:39:26.629Z,100334.86
2017-10-28T18:42:01.483Z,100331.31
2017-10-28T18:44:36.126Z,100325.06
2017-10-28T18:47:10.750Z,100302.03
2017-10-28T18:49:45.578Z,100321.17
2017-10-28T18:52:20.182Z,100314.23
2017-10-28T18:54:55.155Z,100315.28
2017-10-28T18:57:29.147Z,100299.94
2017-10-28T19:00:03.863Z,100291.58
2017-10-28T19:02:39.175Z,100287.73
2017-10-28T19:05:14.174Z,100287.81
2017-10-28T19:07:49.098Z,100290.63
2017-10-28T19:10:23.690Z,100273.86
2017-10-28T19:12:58.619Z,100258.72
2017-10-28T19:15:33.199Z,100258.36
2017-10-28T19:18:07.655Z,100248.70
2017-10-28T19:20:42.266Z,100241.93
2017-10-28T19:23:17.831Z,100252.10
2017-10-28T19:25:53.490Z,100239.44
2017-10-28T19:28:28.131Z,100221.17
2017-10-28T19:31:02.760Z,100197.22
2017-10-28T19:33:37.386Z,100210.73
2017-10-28T19:36:11.907Z,100218.28
2017-10-28T19:38:46.799Z,100204.39
2017-10-28T19:41:21.819Z,100195.73
2017-10-28T19:43:56.568Z,100199.11
2017-10-28T19:46:31.433Z,100198.12
2017-10-28T19:49:06.265Z,100193.28
2017-10-28T19:51:41.063Z,100195.19
2017-10-28T19:54:15.695Z,100183.81
2017-10-28T19:56:50.211Z,100181.83
2017-10-28T19:59:25.090Z,100170.23
2017-10-28T20:01:59.792Z,100165.09
2017-10-28T20:04:34.557Z,100152.22
2017-10-28T20:07:09.455Z,100145.06
2017-10-28T20:09:45.243Z,100138.31
2017-10-28T20:12:19.835Z,100120.09
2017-10-28T20:14:54.562Z,100118.59
2017-10-28T20:17:29.183Z,100111.11
2017-10-28T20:20:03.920Z,100101.00
2017-10-28T20:22:38.360Z,100094.61
2017-10-28T20:25:13.355Z,100090.83
2017-10-28T20:27:48.176Z,100086.77
2017-10-28T20:30:23.014Z,100063.95
2017-10-28T20:32:58.034Z,100054.33
2017-10-28T20:35:33.322Z,100056.03
2017-10-28T20:38:07.955Z,100044.70
2017-10-28T20:40:42.366Z,100040.52
2017-10-28T20:43:17.178Z,100029.84
2017-10-28T20:45:51.778Z,100047.13
2017-10-28T20:48:26.549Z,100032.06
2017-10-28T20:51:01.363Z,100028.80
2017-10-28T20:53:37.255Z,100023.77
2017-10-28T20:56:12.097Z,100021.09
2017-10-28T20:58:46.959Z,100003.66
2017-10-28T21:01:21.803Z,99995.81
2017-10-28T21:03:56.493Z,99983.27
2017-10-28T21:06:31.111Z,99986.34
2017-10-28T21:09:05.115Z,99983.45
2017-10-28T21:11:40.190Z,99994.64
2017-10-28T21:14:15.064Z,99970.51
2017-10-28T21:16:49.982Z,99966.59
2017-10-28T21:19:24.791Z,99956.63
2017-10-28T21:22:00.492Z,99952.41
2017-10-28T21:24:36.695Z,99954.80
2017-10-28T21:27:11.991Z,99944.95
2017-10-28T21:29:46.630Z,99934.92
2017-10-28T21:32:21.415Z,99919.01
2017-10-28T21:34:55.987Z,99919.67
2017-10-28T21:37:30.774Z,99896.86
2017-10-28T21:40:05.619Z,99891.63
2017-10-28T21:42:40.424Z,99884.86
2017-10-28T21:45:15.233Z,99876.31
2017-10-28T21:47:49.908Z,99874.20
2017-10-28T21:50:24.671Z,99859.08
2017-10-28T21:52:59.686Z,99851.27
2017-10-28T21:55:34.594Z,99843.36
2017-10-28T21:58:09.305Z,99836.25
2017-10-28T22:00:45.780Z,99839.44
2017-10-28T22:03:20.714Z,99844.58
2017-10-28T22:05:56.475Z,99839.30
2017-10-28T22:08:31.087Z,99841.66
2017-10-28T22:11:05.449Z,99830.52
2017-10-28T22:13:40.174Z,99824.59
2017-10-28T22:16:14.872Z,99819.27
2017-10-28T22:18:49.603Z,99823.16
2017-10-28T22:21:24.311Z,99810.88
2017-10-28T22:23:58.795Z,99801.64
2017-10-28T22:26:33.806Z,99807.89
2017-10-28T22:29:08.595Z,99828.48
2017-10-28T22:31:43.368Z,99786.02
2017-10-28T22:34:18.066Z,99764.73
2017-10-28T22:36:52.846Z,99770.89
2017-10-28T22:39:27.580Z,99774.67
2017-10-28T22:42:02.219Z,99745.97
2017-10-28T22:44:37.906Z,99755.61
2017-10-28T22:47:12.559Z,99747.14
2017-10-28T22:49:47.134Z,99745.23
2017-10-28T22:52:21.912Z,99724.34
2017-10-28T22:54:56.895Z,99719.36
2017-10-28T22:57:30.946Z,99719.53
2017-10-28T23:00:05.403Z,99694.48
2017-10-28T23:02:40.404Z,99688.87
2017-10-28T23:05:15.136Z,99690.74
2017-10-28T23:07:49.951Z,99699.90
2017-10-28T23:10:24.691Z,99697.45
2017-10-28T23:12:59.459Z,99688.49
2017-10-28T23:15:34.349Z,99690.72
2017-10-28T23:18:09.123Z,99675.72
2017-10-28T23:20:43.831Z,99675.95
2017-10-28T23:23:18.550Z,99671.95
2017-10-28T23:25:53.159Z,99662.16
2017-10-28T23:28:28.855Z,99635.94
2017-10-28T23:31:03.447Z,99637.12
2017-10-28T23:33:38.187Z,99647.16
2017-10-28T23:36:12.892Z,99644.63
2017-10-28T23:38:47.275Z,99620.20
2017-10-28T23:41:22.360Z,99630.45
2017-10-28T23:43:56.855Z,99622.81
2017-10-28T23:46:31.473Z,99628.00
2017-10-28T23:49:06.386Z,99631.05
2017-10-28T23:51:41.066Z,99618.84
2017-10-28T23:54:17.021Z,99619.97
2017-10-28T23:56:51.659Z,99646.59
2017-10-28T23:59:27.226Z,99602.53
